createdAt,value
2018-01-14T09:35:07.338Z,14.10
2018-01-14T09:37:35.319Z,14.98
2018-01-14T09:40:03.328Z,14.40
2018-01-14T09:42:31.102Z,15.10
2018-01-14T09:44:59.685Z,13.70
2018-01-14T09:47:28.220Z,20.40
2018-01-14T09:49:56.154Z,18.00
2018-01-14T09:52:24.092Z,14.87
2018-01-14T09:54:52.165Z,15.57
2018-01-14T09:57:20.137Z,14.43
2018-01-14T09:59:48.735Z,14.10
2018-01-14T10:02:17.925Z,14.27
2018-01-14T10:04:45.687Z,13.60
2018-01-14T10:07:13.547Z,12.95
2018-01-14T10:09:42.097Z,12.73
2018-01-14T10:12:10.145Z,12.90
2018-01-14T10:14:38.164Z,12.65
2018-01-14T10:17:06.116Z,13.85
2018-01-14T10:19:34.153Z,12.70
2018-01-14T10:22:01.870Z,13.13
2018-01-14T10:24:30.433Z,13.65
2018-01-14T10:26:58.214Z,14.48
2018-01-14T10:29:26.707Z,14.30
2018-01-14T10:31:55.252Z,12.32
2018-01-14T10:34:23.002Z,12.07
2018-01-14T10:36:51.516Z,11.45
2018-01-14T10:39:19.295Z,12.32
2018-01-14T10:41:47.818Z,13.52
2018-01-14T10:44:15.639Z,13.20
2018-01-14T10:46:44.996Z,12.57
2018-01-14T10:49:12.824Z,13.70
2018-01-14T10:51:40.685Z,13.10
2018-01-14T10:54:10.436Z,12.57
2018-01-14T10:56:38.224Z,12.53
2018-01-14T10:59:06.091Z,12.20
2018-01-14T11:01:33.825Z,12.30
2018-01-14T11:04:01.543Z,12.20
2018-01-14T11:06:30.086Z,14.07
2018-01-14T11:08:57.924Z,13.25
2018-01-14T11:11:26.470Z,12.47
2018-01-14T11:13:54.440Z,13.30
2018-01-14T11:16:22.922Z,12.97
2018-01-14T11:18:55.769Z,14.73
2018-01-14T11:21:25.110Z,17.02
2018-01-14T11:23:53.770Z,14.50
2018-01-14T11:26:21.501Z,14.87
2018-01-14T11:28:52.385Z,18.60
2018-01-14T11:31:20.138Z,14.25
2018-01-14T11:33:47.936Z,15.32
2018-01-14T11:36:16.460Z,15.13
2018-01-14T11:38:44.250Z,13.68
2018-01-14T11:41:12.191Z,13.40
2018-01-14T11:43:41.269Z,13.38
2018-01-14T11:46:10.297Z,12.63
2018-01-14T11:48:38.229Z,14.30
2018-01-14T11:51:06.036Z,12.70
2018-01-14T11:53:33.825Z,13.18
2018-01-14T11:56:03.342Z,12.80
2018-01-14T11:58:32.045Z,13.20
2018-01-14T12:00:59.828Z,12.65
2018-01-14T12:03:27.693Z,12.60
2018-01-14T12:05:55.483Z,13.30
2018-01-14T12:08:23.339Z,13.40
2018-01-14T12:10:51.137Z,13.10
2018-01-14T12:13:18.852Z,13.32
2018-01-14T12:15:46.697Z,13.90
2018-01-14T12:18:14.513Z,12.52
2018-01-14T12:20:42.394Z,13.75
2018-01-14T12:23:10.184Z,12.80
2018-01-14T12:25:38.882Z,12.60
2018-01-14T12:31:02.700Z,13.25
2018-01-14T12:36:45.824Z,13.50
2018-01-14T12:39:13.648Z,13.02
2018-01-14T12:41:42.170Z,12.68
2018-01-14T12:44:09.976Z,12.40
2018-01-14T12:46:37.766Z,12.40
2018-01-14T12:49:05.823Z,13.30
2018-01-14T12:51:33.551Z,12.02
2018-01-14T12:54:01.356Z,12.70
2018-01-14T12:56:29.849Z,12.80
2018-01-14T12:58:58.580Z,12.30
2018-01-14T13:01:26.356Z,12.23
2018-01-14T13:03:54.188Z,12.20
2018-01-14T13:06:21.932Z,12.40
2018-01-14T13:08:50.673Z,12.88
2018-01-14T13:11:18.474Z,12.70
2018-01-14T13:13:46.966Z,12.00
2018-01-14T13:16:15.584Z,12.25
2018-01-14T13:18:44.212Z,12.35
2018-01-14T13:21:11.936Z,12.60
2018-01-14T13:23:39.756Z,12.52
2018-01-14T13:26:08.269Z,13.00
2018-01-14T13:28:39.920Z,12.33
2018-01-14T13:31:07.701Z,13.50
2018-01-14T13:33:35.512Z,11.97
2018-01-14T13:36:03.284Z,12.27
2018-01-14T13:38:31.788Z,11.75
2018-01-14T13:41:00.579Z,12.00
2018-01-14T13:43:28.361Z,11.77
2018-01-14T13:45:56.921Z,10.38
2018-01-14T13:48:24.787Z,12.10
2018-01-14T13:50:52.564Z,11.18
2018-01-14T13:53:20.317Z,11.43
2018-01-14T13:55:48.156Z,11.30
2018-01-14T14:04:53.467Z,10.68
2018-01-14T14:07:22.227Z,11.00
2018-01-14T14:09:52.434Z,10.80
2018-01-14T14:12:20.589Z,11.98
2018-01-14T14:14:48.919Z,11.73
2018-01-14T14:17:16.696Z,11.00
2018-01-14T14:19:46.197Z,11.00
2018-01-14T14:22:14.672Z,11.68
2018-01-14T14:24:43.225Z,10.23
2018-01-14T14:27:10.953Z,11.05
2018-01-14T14:29:38.925Z,13.00
2018-01-14T14:32:06.653Z,11.60
2018-01-14T14:34:35.141Z,11.52
2018-01-14T14:37:02.924Z,10.70
2018-01-14T14:39:30.683Z,12.32
2018-01-14T14:41:58.863Z,12.20
2018-01-14T14:44:26.601Z,11.57
2018-01-14T14:46:55.142Z,13.18
2018-01-14T14:49:22.838Z,12.27
2018-01-14T14:51:51.486Z,14.38
2018-01-14T14:54:19.192Z,17.58
2018-01-14T14:56:47.850Z,17.50
2018-01-14T14:59:15.636Z,16.20
2018-01-14T15:01:44.275Z,18.00
2018-01-14T15:04:12.197Z,13.17
2018-01-14T15:06:43.698Z,13.85
2018-01-14T15:09:12.532Z,12.15
2018-01-14T15:11:42.150Z,11.80
2018-01-14T15:14:10.642Z,11.43
2018-01-14T15:16:44.033Z,11.70
2018-01-14T15:19:11.824Z,10.98
2018-01-14T15:21:39.551Z,10.90
2018-01-14T15:24:08.139Z,10.85
2018-01-14T15:26:36.911Z,10.30
2018-01-14T15:29:04.711Z,10.40
2018-01-14T15:31:32.438Z,11.45
2018-01-14T15:34:00.199Z,11.18
2018-01-14T15:36:28.029Z,15.00
2018-01-14T15:38:55.993Z,13.30
2018-01-14T15:41:23.765Z,11.10
2018-01-14T15:43:51.480Z,10.95
2018-01-14T15:46:20.166Z,10.43
2018-01-14T15:48:47.907Z,11.82
2018-01-14T15:51:16.458Z,11.70
2018-01-14T15:53:44.770Z,10.47
2018-01-14T15:56:13.268Z,9.93
2018-01-14T15:58:42.822Z,9.30
2018-01-14T16:01:10.823Z,9.90
2018-01-14T16:03:38.660Z,10.30
2018-01-14T16:06:06.565Z,10.70
2018-01-14T16:08:34.430Z,9.35
2018-01-14T16:11:03.035Z,9.82
2018-01-14T16:13:31.403Z,10.43
2018-01-14T16:15:59.177Z,10.70
2018-01-14T16:18:26.941Z,12.82
2018-01-14T16:20:54.708Z,11.80
2018-01-14T16:23:22.416Z,14.18
2018-01-14T16:25:50.148Z,18.27
2018-01-14T16:28:17.969Z,19.02
2018-01-14T16:30:46.772Z,18.23
2018-01-14T16:33:16.028Z,17.60
2018-01-14T16:35:43.826Z,18.08
2018-01-14T16:38:22.027Z,14.27
2018-01-14T16:43:22.827Z,12.30
2018-01-14T16:45:50.609Z,11.10
2018-01-14T16:48:19.753Z,11.30
2018-01-14T16:50:48.243Z,12.18
2018-01-14T16:53:17.096Z,11.60
2018-01-14T16:55:45.105Z,11.95
2018-01-14T16:58:12.835Z,13.57
2018-01-14T17:00:40.636Z,14.00
2018-01-14T17:03:08.661Z,15.50
2018-01-14T17:05:36.658Z,18.80
2018-01-14T17:08:05.198Z,18.98
2018-01-14T17:10:32.984Z,17.25
2018-01-14T17:13:00.715Z,16.87
2018-01-14T17:15:28.555Z,18.13
2018-01-14T17:17:57.107Z,16.10
2018-01-14T17:20:26.274Z,15.88
2018-01-14T17:22:54.942Z,15.02
2018-01-14T17:25:22.708Z,16.17
2018-01-14T17:27:50.594Z,18.80
2018-01-14T17:30:18.429Z,16.95
2018-01-14T17:32:49.205Z,15.63
2018-01-14T17:35:17.710Z,14.40
2018-01-14T17:37:45.484Z,13.40
2018-01-14T17:40:14.047Z,14.80
2018-01-14T17:42:41.830Z,15.60
2018-01-14T17:45:13.816Z,19.60
2018-01-14T17:47:41.603Z,19.95
2018-01-14T17:50:09.354Z,21.90
2018-01-14T17:52:37.172Z,20.55
2018-01-14T17:55:06.080Z,18.12
2018-01-14T17:57:34.618Z,16.08
2018-01-14T18:00:02.497Z,14.00
2018-01-14T18:02:30.272Z,15.50
2018-01-14T18:04:58.020Z,16.00
2018-01-14T18:07:25.974Z,16.50
2018-01-14T18:09:55.407Z,14.38
2018-01-14T18:12:23.279Z,14.13
2018-01-14T18:14:51.008Z,13.68
2018-01-14T18:17:26.470Z,14.50
2018-01-14T18:19:54.236Z,25.30
2018-01-14T18:22:22.005Z,27.83
2018-01-14T18:24:49.772Z,28.90
2018-01-14T18:27:17.494Z,24.60
2018-01-14T18:29:45.296Z,23.98
2018-01-14T18:32:13.020Z,22.52
2018-01-14T18:34:40.783Z,22.50
2018-01-14T18:37:08.573Z,22.15
2018-01-14T18:39:36.384Z,21.23
2018-01-14T18:42:04.902Z,21.12
2018-01-14T18:44:33.542Z,19.60
2018-01-14T18:47:02.053Z,19.52
2018-01-14T18:49:29.758Z,17.05
2018-01-14T18:51:57.538Z,15.30
2018-01-14T18:54:25.630Z,15.00
2018-01-14T18:56:54.121Z,18.60
2018-01-14T18:59:23.269Z,24.92
2018-01-14T19:01:51.871Z,24.05
2018-01-14T19:04:19.604Z,26.85
2018-01-14T19:06:47.490Z,32.03
2018-01-14T19:09:15.210Z,29.90
2018-01-14T19:11:44.033Z,31.10
2018-01-14T19:14:11.801Z,29.10
2018-01-14T19:16:39.547Z,26.67
2018-01-14T19:19:07.921Z,23.75
2018-01-14T19:24:09.575Z,23.65
2018-01-14T19:26:38.287Z,22.35
2018-01-14T19:29:06.835Z,21.62
2018-01-14T19:31:34.603Z,23.62
2018-01-14T19:34:03.448Z,23.40
2018-01-14T19:36:32.012Z,23.77
2018-01-14T19:39:01.287Z,29.42
2018-01-14T19:41:29.101Z,31.65
2018-01-14T19:43:57.060Z,34.72
2018-01-14T19:46:27.820Z,36.40
2018-01-14T19:48:56.403Z,34.40
2018-01-14T19:51:24.917Z,36.63
2018-01-14T19:53:52.719Z,43.70
2018-01-14T19:56:21.068Z,47.17
2018-01-14T19:58:48.819Z,46.47
2018-01-14T20:01:16.623Z,45.05
2018-01-14T20:03:45.113Z,47.80
2018-01-14T20:06:13.375Z,45.08
2018-01-14T20:08:42.040Z,44.35
2018-01-14T20:11:09.883Z,38.20
2018-01-14T20:13:37.702Z,37.78
2018-01-14T20:16:05.430Z,33.50
2018-01-14T20:18:33.220Z,32.38
2018-01-14T20:21:00.985Z,29.70
2018-01-14T20:23:28.722Z,29.83
2018-01-14T20:25:57.013Z,28.40
2018-01-14T20:28:24.780Z,24.63
2018-01-14T20:30:52.656Z,26.57
2018-01-14T20:33:21.348Z,26.02
2018-01-14T20:35:49.157Z,24.10
2018-01-14T20:38:16.872Z,24.37
2018-01-14T20:40:44.699Z,23.63
2018-01-14T20:43:13.271Z,26.65
2018-01-14T20:45:40.986Z,23.15
2018-01-14T20:48:08.862Z,21.87
2018-01-14T20:50:36.774Z,20.80
2018-01-14T20:53:04.527Z,18.00
2018-01-14T20:55:32.333Z,19.42
2018-01-14T20:58:00.117Z,20.12
2018-01-14T21:00:27.836Z,18.90
2018-01-14T21:02:55.642Z,18.02
2018-01-14T21:05:23.419Z,18.27
2018-01-14T21:07:51.751Z,21.75
2018-01-14T21:10:20.376Z,22.00
2018-01-14T21:12:48.166Z,26.10
2018-01-14T21:15:17.710Z,29.85
2018-01-14T21:17:45.485Z,30.73
2018-01-14T21:20:13.243Z,31.70
2018-01-14T21:22:41.064Z,31.15
2018-01-14T21:25:11.752Z,31.70
2018-01-14T21:27:39.564Z,30.25
2018-01-14T21:30:08.146Z,31.58
2018-01-14T21:32:37.302Z,32.22
2018-01-14T21:35:05.836Z,31.27
2018-01-14T21:37:33.780Z,30.00
2018-01-14T21:40:01.515Z,28.50
2018-01-14T21:42:30.121Z,28.60
2018-01-14T21:44:57.891Z,26.83
2018-01-14T21:47:25.686Z,27.33
2018-01-14T21:49:53.416Z,26.50
2018-01-14T21:52:21.233Z,23.30
2018-01-14T21:54:49.014Z,23.92
2018-01-14T21:57:16.776Z,22.93
2018-01-14T21:59:45.456Z,22.30
2018-01-14T22:02:13.293Z,22.40
2018-01-14T22:04:41.109Z,21.73
2018-01-14T22:07:09.740Z,20.70
2018-01-14T22:09:37.504Z,19.73
2018-01-14T22:12:05.273Z,19.08
2018-01-14T22:14:33.303Z,20.20
2018-01-14T22:17:01.053Z,19.95
2018-01-14T22:19:28.774Z,20.50
2018-01-14T22:21:56.580Z,20.48
2018-01-14T22:24:24.430Z,18.83
2018-01-14T22:26:52.155Z,18.37
2018-01-14T22:29:19.977Z,19.50
2018-01-14T22:31:47.764Z,18.63
2018-01-14T22:34:16.485Z,18.00
2018-01-14T22:36:44.241Z,21.00
2018-01-14T22:39:12.001Z,18.83
2018-01-14T22:41:39.807Z,19.30
2018-01-14T22:44:07.645Z,18.30
2018-01-14T22:46:35.389Z,18.87
2018-01-14T22:49:03.160Z,19.45
2018-01-14T22:51:30.971Z,22.48
2018-01-14T22:53:58.830Z,24.37
2018-01-14T22:56:26.612Z,23.33
2018-01-14T22:58:54.371Z,21.90
2018-01-14T23:01:22.286Z,23.15
2018-01-14T23:03:50.058Z,23.73
2018-01-14T23:06:17.968Z,21.90
2018-01-14T23:08:45.775Z,21.02
2018-01-14T23:11:14.318Z,23.12
2018-01-14T23:13:42.126Z,21.83
2018-01-14T23:16:09.840Z,21.95
2018-01-14T23:18:37.681Z,21.77
2018-01-14T23:21:05.468Z,21.15
2018-01-14T23:23:33.229Z,20.98
2018-01-14T23:26:01.846Z,20.90
2018-01-14T23:28:30.401Z,20.20
2018-01-14T23:30:58.256Z,19.30
2018-01-14T23:33:26.023Z,19.23
2018-01-14T23:35:53.788Z,20.65
2018-01-14T23:38:21.503Z,20.58
2018-01-14T23:40:50.033Z,19.50
2018-01-14T23:43:17.800Z,17.85
2018-01-14T23:45:46.582Z,18.35
2018-01-14T23:48:14.347Z,18.10
2018-01-14T23:50:42.112Z,18.10
2018-01-14T23:53:10.407Z,17.60
2018-01-14T23:55:38.197Z,17.25
2018-01-14T23:58:06.760Z,17.27
